createdAt,value
2017-06-28T00:00:23.173Z,19.80
2017-06-28T00:02:51.481Z,19.80
2017-06-28T00:05:19.769Z,19.80
2017-06-28T00:07:48.085Z,19.70
2017-06-28T00:10:16.388Z,19.70
2017-06-28T00:12:44.721Z,19.70
2017-06-28T00:15:13.012Z,19.70
2017-06-28T00:17:41.306Z,19.70
2017-06-28T00:20:09.616Z,19.60
2017-06-28T00:22:37.908Z,19.50
2017-06-28T00:25:06.217Z,19.50
2017-06-28T00:27:34.513Z,19.50
2017-06-28T00:30:02.829Z,19.40
2017-06-28T00:32:31.120Z,19.40
2017-06-28T00:34:59.412Z,19.50
2017-06-28T00:37:27.729Z,19.50
2017-06-28T00:39:56.018Z,19.50
2017-06-28T00:42:24.320Z,19.50
2017-06-28T00:44:52.604Z,19.50
2017-06-28T00:47:20.917Z,19.50
2017-06-28T00:49:49.205Z,19.50
2017-06-28T00:52:17.494Z,19.50
2017-06-28T00:54:45.804Z,19.50
2017-06-28T00:57:14.108Z,19.50
2017-06-28T00:59:42.428Z,19.50
2017-06-28T01:02:10.717Z,19.60
2017-06-28T01:04:39.032Z,19.70
2017-06-28T01:07:07.316Z,19.80
2017-06-28T01:09:35.605Z,19.90
2017-06-28T01:12:03.913Z,19.90
2017-06-28T01:14:32.206Z,19.90
2017-06-28T01:17:00.514Z,20.00
2017-06-28T01:19:28.800Z,20.00
2017-06-28T01:21:57.118Z,20.00
2017-06-28T01:24:25.409Z,20.00
2017-06-28T01:26:53.697Z,20.00
2017-06-28T01:29:22.009Z,20.00
2017-06-28T01:31:50.302Z,20.00
2017-06-28T01:34:18.613Z,20.00
2017-06-28T01:36:46.923Z,20.00
2017-06-28T01:39:15.238Z,20.00
2017-06-28T01:41:43.532Z,20.00
2017-06-28T01:44:11.831Z,20.00
2017-06-28T01:46:40.144Z,20.00
2017-06-28T01:49:08.432Z,19.90
2017-06-28T01:51:36.736Z,19.90
2017-06-28T01:54:05.029Z,19.70
2017-06-28T01:56:33.336Z,19.60
2017-06-28T01:59:01.625Z,19.40
2017-06-28T02:01:29.916Z,19.30
2017-06-28T02:03:58.225Z,19.20
2017-06-28T02:06:26.512Z,19.10
2017-06-28T02:08:54.825Z,19.10
2017-06-28T02:11:23.113Z,19.00
2017-06-28T02:13:51.437Z,18.90
2017-06-28T02:16:19.730Z,18.90
2017-06-28T02:18:48.020Z,18.90
2017-06-28T02:21:16.336Z,18.80
2017-06-28T02:23:44.633Z,18.80
2017-06-28T02:26:12.957Z,18.70
2017-06-28T02:28:41.251Z,18.60
2017-06-28T02:31:09.572Z,18.60
2017-06-28T02:33:37.849Z,18.60
2017-06-28T02:36:06.141Z,18.60
2017-06-28T02:38:34.452Z,18.50
2017-06-28T02:41:02.732Z,18.50
2017-06-28T02:43:31.041Z,18.50
2017-06-28T02:45:59.330Z,18.40
2017-06-28T02:48:27.641Z,18.40
2017-06-28T02:50:55.924Z,18.40
2017-06-28T02:53:24.214Z,18.40
2017-06-28T02:55:52.528Z,18.40
2017-06-28T02:58:20.820Z,18.40
2017-06-28T03:00:49.125Z,18.40
2017-06-28T03:03:17.413Z,18.40
2017-06-28T03:05:45.733Z,18.30
2017-06-28T03:08:14.033Z,18.20
2017-06-28T03:10:42.324Z,18.20
2017-06-28T03:13:10.645Z,18.20
2017-06-28T03:15:38.933Z,18.20
2017-06-28T03:18:07.254Z,18.20
2017-06-28T03:20:35.544Z,18.20
2017-06-28T03:23:03.856Z,18.20
2017-06-28T03:25:32.146Z,18.10
2017-06-28T03:28:00.460Z,18.10
2017-06-28T03:30:28.744Z,18.10
2017-06-28T03:32:57.057Z,18.00
2017-06-28T03:35:25.360Z,18.00
2017-06-28T03:37:53.644Z,18.00
2017-06-28T03:40:21.955Z,18.00
2017-06-28T03:42:50.240Z,18.00
2017-06-28T03:45:18.548Z,18.00
2017-06-28T03:47:46.837Z,18.10
2017-06-28T03:50:15.152Z,18.10
2017-06-28T03:52:43.441Z,18.10
2017-06-28T03:55:11.731Z,18.10
2017-06-28T03:57:40.045Z,18.20
2017-06-28T04:00:08.337Z,18.20
2017-06-28T04:02:36.649Z,18.20
2017-06-28T04:05:04.941Z,18.20
2017-06-28T04:07:33.252Z,18.10
2017-06-28T04:10:01.537Z,18.10
2017-06-28T04:12:29.856Z,18.10
2017-06-28T04:14:58.148Z,18.10
2017-06-28T04:17:26.441Z,18.20
2017-06-28T04:19:54.752Z,18.20
2017-06-28T04:22:23.041Z,18.20
2017-06-28T04:24:51.349Z,18.20
2017-06-28T04:27:19.637Z,18.20
2017-06-28T04:29:47.953Z,18.20
2017-06-28T04:32:16.244Z,18.30
2017-06-28T04:34:44.553Z,18.30
2017-06-28T04:37:12.845Z,18.30
2017-06-28T04:39:41.137Z,18.30
2017-06-28T04:42:09.457Z,18.40
2017-06-28T04:44:37.751Z,18.40
2017-06-28T04:47:06.061Z,18.50
2017-06-28T04:49:34.353Z,18.50
2017-06-28T04:52:02.665Z,18.60
2017-06-28T04:54:30.972Z,18.60
2017-06-28T04:56:59.281Z,18.60
2017-06-28T04:59:27.574Z,18.60
2017-06-28T05:01:55.856Z,18.60
2017-06-28T05:04:24.171Z,18.60
2017-06-28T05:06:52.496Z,18.70
2017-06-28T05:09:20.805Z,18.70
2017-06-28T05:11:49.085Z,18.70
2017-06-28T05:14:17.392Z,18.70
2017-06-28T05:16:45.697Z,18.70
2017-06-28T05:19:14.019Z,18.80
2017-06-28T05:21:42.337Z,18.80
2017-06-28T05:24:10.632Z,18.80
2017-06-28T05:26:38.936Z,18.90
2017-06-28T05:29:07.225Z,18.90
2017-06-28T05:31:35.536Z,18.90
2017-06-28T05:34:03.826Z,18.90
2017-06-28T05:36:32.129Z,19.00
2017-06-28T05:39:00.417Z,19.00
2017-06-28T05:41:28.727Z,19.00
2017-06-28T05:43:57.021Z,19.10
2017-06-28T05:46:25.308Z,19.10
2017-06-28T05:48:53.613Z,19.20
2017-06-28T05:51:21.906Z,19.30
2017-06-28T05:53:50.216Z,19.50
2017-06-28T05:56:18.528Z,19.60
2017-06-28T05:58:46.852Z,19.70
2017-06-28T06:01:15.148Z,19.80
2017-06-28T06:03:43.572Z,19.90
2017-06-28T06:06:11.875Z,19.90
2017-06-28T06:08:40.167Z,20.00
2017-06-28T06:11:08.480Z,20.00
2017-06-28T06:13:36.761Z,20.00
2017-06-28T06:16:05.068Z,20.20
2017-06-28T06:18:33.357Z,20.30
2017-06-28T06:21:01.743Z,20.40
2017-06-28T06:23:30.049Z,20.60
2017-06-28T06:25:58.336Z,20.70
2017-06-28T06:28:26.637Z,20.80
2017-06-28T06:30:54.936Z,20.90
2017-06-28T06:33:23.240Z,20.80
2017-06-28T06:35:51.520Z,20.70
2017-06-28T06:38:19.838Z,20.70
2017-06-28T06:40:48.120Z,20.90
2017-06-28T06:43:16.404Z,21.00
2017-06-28T06:45:44.733Z,21.00
2017-06-28T06:48:13.026Z,21.10
2017-06-28T06:50:41.345Z,21.20
2017-06-28T06:53:09.629Z,21.40
2017-06-28T06:55:37.940Z,21.70
2017-06-28T06:58:06.225Z,21.70
2017-06-28T07:00:34.512Z,21.90
2017-06-28T07:03:02.829Z,22.00
2017-06-28T07:05:31.120Z,21.90
2017-06-28T07:07:59.425Z,21.80
2017-06-28T07:10:27.721Z,21.80
2017-06-28T07:12:56.037Z,21.90
2017-06-28T07:15:24.324Z,22.10
2017-06-28T07:17:52.612Z,22.10
2017-06-28T07:20:20.922Z,22.10
2017-06-28T07:22:49.213Z,22.00
2017-06-28T07:25:17.529Z,21.90
2017-06-28T07:27:45.822Z,21.90
2017-06-28T07:30:14.153Z,22.00
2017-06-28T07:32:42.449Z,22.20
2017-06-28T07:35:10.780Z,22.30
2017-06-28T07:37:39.077Z,22.30
2017-06-28T07:40:07.364Z,22.30
2017-06-28T07:42:35.672Z,22.10
2017-06-28T07:45:03.961Z,21.90
2017-06-28T07:47:32.271Z,21.80
2017-06-28T07:50:00.569Z,21.60
2017-06-28T07:52:28.884Z,21.50
2017-06-28T07:54:57.172Z,21.40
2017-06-28T07:57:25.493Z,21.30
2017-06-28T07:59:53.777Z,21.20
2017-06-28T08:02:22.070Z,21.10
2017-06-28T08:04:50.389Z,21.00
2017-06-28T08:07:18.684Z,20.90
2017-06-28T08:09:46.997Z,21.00
2017-06-28T08:12:15.306Z,21.10
2017-06-28T08:14:43.621Z,21.10
2017-06-28T08:17:11.922Z,21.10
2017-06-28T08:19:40.268Z,20.90
2017-06-28T08:22:08.552Z,20.90
2017-06-28T08:24:36.842Z,21.10
2017-06-28T08:27:05.153Z,21.40
2017-06-28T08:29:32.682Z,21.30
2017-06-28T08:32:01.008Z,21.80
2017-06-28T08:34:29.296Z,21.90
2017-06-28T08:36:57.616Z,22.00
2017-06-28T08:39:25.908Z,22.10
2017-06-28T08:41:54.236Z,22.30
2017-06-28T08:44:22.536Z,22.30
2017-06-28T08:46:50.821Z,22.20
2017-06-28T08:49:19.211Z,21.90
2017-06-28T08:51:47.512Z,21.70
2017-06-28T08:54:15.830Z,21.50
2017-06-28T08:56:44.130Z,21.30
2017-06-28T08:59:12.452Z,21.30
2017-06-28T09:01:40.746Z,21.40
2017-06-28T09:04:09.069Z,21.40
2017-06-28T09:06:37.352Z,21.60
2017-06-28T09:09:05.752Z,22.00
2017-06-28T09:11:34.063Z,22.20
2017-06-28T09:14:02.350Z,22.30
2017-06-28T09:16:30.657Z,22.30
2017-06-28T09:18:58.948Z,22.40
2017-06-28T09:21:27.256Z,22.60
2017-06-28T09:23:55.557Z,22.50
2017-06-28T09:26:23.884Z,22.30
2017-06-28T09:28:52.176Z,22.30
2017-06-28T09:31:20.477Z,22.30
2017-06-28T09:33:48.785Z,22.30
2017-06-28T09:36:17.080Z,22.40
2017-06-28T09:38:45.397Z,22.40
2017-06-28T09:41:13.697Z,22.50
2017-06-28T09:43:42.012Z,22.50
2017-06-28T09:46:10.309Z,22.50
2017-06-28T09:48:38.627Z,22.50
2017-06-28T09:51:06.916Z,22.60
2017-06-28T09:53:35.205Z,22.80
2017-06-28T09:56:03.513Z,22.90
2017-06-28T09:58:31.801Z,23.10
2017-06-28T10:01:00.122Z,23.10
2017-06-28T10:03:28.413Z,23.10
2017-06-28T10:05:56.721Z,23.00
2017-06-28T10:08:25.014Z,22.80
2017-06-28T10:10:53.337Z,22.70
2017-06-28T10:13:21.628Z,22.70
2017-06-28T10:15:49.908Z,22.60
2017-06-28T10:18:18.224Z,22.50
2017-06-28T10:20:46.512Z,22.40
2017-06-28T10:23:14.830Z,22.50
2017-06-28T10:25:43.122Z,22.60
2017-06-28T10:28:11.451Z,22.60
2017-06-28T10:30:39.748Z,22.50
2017-06-28T10:33:08.038Z,22.30
2017-06-28T10:35:36.348Z,22.00
2017-06-28T10:38:04.633Z,21.90
2017-06-28T10:40:32.944Z,21.70
2017-06-28T10:43:01.254Z,21.50
2017-06-28T10:45:29.571Z,21.40
2017-06-28T10:47:57.869Z,21.20
2017-06-28T10:50:26.201Z,21.00
2017-06-28T10:52:54.493Z,20.80
2017-06-28T10:55:22.776Z,20.80
2017-06-28T10:57:51.088Z,20.90
2017-06-28T11:00:19.388Z,21.00
2017-06-28T11:02:47.700Z,21.10
2017-06-28T11:05:16.020Z,21.20
2017-06-28T11:07:43.585Z,21.20
2017-06-28T11:10:11.888Z,21.40
2017-06-28T11:12:40.213Z,21.50
2017-06-28T11:15:08.497Z,21.70
2017-06-28T11:17:36.780Z,21.90
2017-06-28T11:20:05.089Z,21.90
2017-06-28T11:22:33.384Z,21.80
2017-06-28T11:25:01.692Z,21.80
2017-06-28T11:27:29.989Z,21.90
2017-06-28T11:29:58.325Z,22.10
2017-06-28T11:32:26.617Z,22.10
2017-06-28T11:34:54.904Z,22.30
2017-06-28T11:37:23.214Z,22.40
2017-06-28T11:39:50.741Z,22.40
2017-06-28T11:42:19.057Z,22.70
2017-06-28T11:44:47.357Z,22.70
2017-06-28T11:47:15.676Z,22.80
2017-06-28T11:49:43.970Z,22.80
2017-06-28T11:52:12.268Z,22.90
2017-06-28T11:54:40.611Z,22.90
2017-06-28T11:57:08.897Z,22.90
2017-06-28T11:59:37.213Z,23.00
2017-06-28T12:02:05.501Z,22.90
2017-06-28T12:04:33.816Z,22.80
2017-06-28T12:07:02.101Z,22.80
2017-06-28T12:09:30.393Z,22.80
2017-06-28T12:11:58.699Z,22.70
2017-06-28T12:14:26.989Z,22.70
2017-06-28T12:16:55.298Z,22.90
2017-06-28T12:19:23.589Z,22.90
2017-06-28T12:21:51.901Z,23.00
2017-06-28T12:24:20.185Z,23.10
2017-06-28T12:26:48.473Z,23.10
2017-06-28T12:29:16.785Z,23.20
2017-06-28T12:31:45.082Z,23.40
2017-06-28T12:34:13.407Z,23.40
2017-06-28T12:36:41.696Z,23.30
2017-06-28T12:39:10.009Z,23.30
2017-06-28T12:41:38.296Z,23.30
2017-06-28T12:44:06.584Z,23.20
2017-06-28T12:46:34.892Z,23.20
2017-06-28T12:49:03.183Z,23.20
2017-06-28T12:51:31.500Z,23.40
2017-06-28T12:53:59.789Z,23.50
2017-06-28T12:56:28.105Z,23.50
2017-06-28T12:58:56.396Z,23.70
2017-06-28T13:01:24.721Z,23.80
2017-06-28T13:03:53.005Z,23.70
2017-06-28T13:06:21.296Z,23.50
2017-06-28T13:08:49.602Z,23.50
2017-06-28T13:11:17.893Z,23.50
2017-06-28T13:13:46.205Z,23.70
2017-06-28T13:16:14.512Z,23.90
2017-06-28T13:18:42.833Z,24.10
2017-06-28T13:21:11.125Z,24.00
2017-06-28T13:23:39.413Z,24.10
2017-06-28T13:26:07.725Z,24.10
2017-06-28T13:28:36.013Z,23.90
2017-06-28T13:31:04.323Z,23.60
2017-06-28T13:33:32.611Z,23.20
2017-06-28T13:36:00.953Z,23.00
2017-06-28T13:38:29.273Z,22.90
2017-06-28T13:40:57.588Z,23.00
2017-06-28T13:43:25.886Z,23.00
2017-06-28T13:45:54.176Z,23.00
2017-06-28T13:48:22.485Z,23.10
2017-06-28T13:50:50.768Z,23.40
2017-06-28T13:53:19.081Z,23.40
2017-06-28T13:55:47.384Z,23.60
2017-06-28T13:58:15.710Z,23.90
2017-06-28T14:00:44.020Z,24.40
2017-06-28T14:03:12.385Z,24.80
2017-06-28T14:05:40.672Z,25.30
2017-06-28T14:08:08.958Z,25.30
2017-06-28T14:10:37.268Z,25.40
2017-06-28T14:13:05.553Z,25.70
2017-06-28T14:15:33.861Z,25.60
2017-06-28T14:18:02.153Z,25.40
2017-06-28T14:20:30.461Z,25.40
2017-06-28T14:22:58.750Z,25.50
2017-06-28T14:25:27.076Z,25.50
2017-06-28T14:27:55.365Z,25.20
2017-06-28T14:30:23.657Z,24.70
2017-06-28T14:32:51.972Z,24.30
2017-06-28T14:35:20.260Z,24.10
2017-06-28T14:37:48.573Z,24.30
2017-06-28T14:40:16.877Z,24.70
2017-06-28T14:42:45.205Z,25.00
2017-06-28T14:45:13.509Z,24.70
2017-06-28T14:47:41.858Z,24.60
2017-06-28T14:50:10.158Z,25.00
2017-06-28T14:52:38.442Z,25.20
2017-06-28T14:55:06.752Z,24.80
2017-06-28T14:57:35.040Z,24.40
2017-06-28T15:00:03.353Z,24.60
2017-06-28T15:02:31.644Z,25.00
2017-06-28T15:04:59.969Z,25.20
2017-06-28T15:07:28.271Z,25.20
2017-06-28T15:09:56.586Z,24.90
2017-06-28T15:12:24.877Z,24.80
2017-06-28T15:14:53.177Z,24.90
2017-06-28T15:17:21.493Z,25.00
2017-06-28T15:19:49.782Z,25.20
2017-06-28T15:22:18.096Z,25.10
2017-06-28T15:24:46.393Z,25.00
2017-06-28T15:27:14.713Z,25.00
2017-06-28T15:29:43.009Z,25.10
2017-06-28T15:32:11.324Z,25.30
2017-06-28T15:34:39.608Z,25.60
2017-06-28T15:37:07.896Z,25.50
2017-06-28T15:39:36.205Z,25.40
2017-06-28T15:42:04.502Z,25.10
2017-06-28T15:44:32.813Z,24.90
2017-06-28T15:47:01.112Z,24.90
2017-06-28T15:49:29.430Z,25.10
2017-06-28T15:51:57.731Z,25.40
2017-06-28T15:54:32.836Z,25.60
2017-06-28T15:57:01.134Z,25.40
2017-06-28T15:59:29.448Z,25.10
2017-06-28T16:01:57.733Z,25.00
2017-06-28T16:04:26.020Z,25.10
2017-06-28T16:06:54.329Z,25.20
2017-06-28T16:09:22.617Z,25.10
2017-06-28T16:11:50.928Z,25.10
2017-06-28T16:14:19.217Z,25.00
2017-06-28T16:16:47.531Z,25.00
2017-06-28T16:19:15.833Z,25.30
2017-06-28T16:21:44.157Z,25.40
2017-06-28T16:24:12.450Z,25.30
2017-06-28T16:26:40.740Z,25.10
2017-06-28T16:29:09.079Z,25.00
2017-06-28T16:31:37.365Z,25.30
2017-06-28T16:34:05.681Z,25.40
2017-06-28T16:36:33.968Z,25.40
2017-06-28T16:39:02.277Z,25.40
2017-06-28T16:41:30.573Z,25.30
2017-06-28T16:43:58.899Z,25.30
2017-06-28T16:46:27.189Z,25.20
2017-06-28T16:48:55.481Z,25.00
2017-06-28T16:51:23.797Z,24.70
2017-06-28T16:53:52.093Z,24.70
2017-06-28T16:56:20.408Z,25.10
2017-06-28T16:58:48.697Z,25.30
2017-06-28T17:01:17.014Z,25.40
2017-06-28T17:03:45.310Z,25.60
2017-06-28T17:06:13.635Z,26.00
2017-06-28T17:08:41.948Z,26.80
2017-06-28T17:11:10.254Z,27.70
2017-06-28T17:13:38.566Z,28.50
2017-06-28T17:16:06.858Z,29.10
2017-06-28T17:18:35.173Z,29.00
2017-06-28T17:21:03.461Z,28.90
2017-06-28T17:23:31.777Z,29.90
2017-06-28T17:26:00.079Z,31.00
2017-06-28T17:28:28.421Z,31.60
2017-06-28T17:30:56.712Z,32.10
2017-06-28T17:33:25.005Z,32.30
2017-06-28T17:35:53.320Z,32.20
2017-06-28T17:38:21.611Z,32.60
2017-06-28T17:40:49.925Z,32.60
2017-06-28T17:43:18.223Z,31.40
2017-06-28T17:45:46.556Z,29.60
2017-06-28T17:48:14.852Z,28.80
2017-06-28T17:50:43.461Z,28.80
2017-06-28T17:53:11.796Z,28.00
2017-06-28T17:55:40.086Z,26.90
2017-06-28T17:58:08.402Z,25.90
2017-06-28T18:00:36.693Z,25.00
2017-06-28T18:03:05.012Z,24.20
2017-06-28T18:05:33.301Z,23.70
2017-06-28T18:08:01.633Z,23.30
2017-06-28T18:10:29.929Z,22.90
2017-06-28T18:12:58.234Z,22.70
2017-06-28T18:15:26.548Z,22.60
2017-06-28T18:17:54.835Z,22.50
2017-06-28T18:20:23.149Z,22.50
2017-06-28T18:22:51.440Z,22.50
2017-06-28T18:25:19.752Z,22.50
2017-06-28T18:27:48.041Z,22.40
2017-06-28T18:30:16.358Z,22.40
2017-06-28T18:32:44.674Z,22.30
2017-06-28T18:35:12.966Z,22.40
2017-06-28T18:37:40.513Z,22.30
2017-06-28T18:40:08.808Z,23.10
2017-06-28T18:42:37.112Z,23.00
2017-06-28T18:45:05.403Z,22.80
2017-06-28T18:47:33.718Z,22.70
2017-06-28T18:50:02.002Z,22.50
2017-06-28T18:52:30.314Z,22.30
2017-06-28T18:54:58.601Z,22.10
2017-06-28T18:57:26.914Z,21.90
2017-06-28T18:59:55.213Z,21.80
2017-06-28T19:02:23.524Z,21.60
2017-06-28T19:04:51.819Z,21.50
2017-06-28T19:07:20.149Z,21.30
2017-06-28T19:09:48.457Z,21.20
2017-06-28T19:12:16.749Z,21.00
2017-06-28T19:14:45.064Z,20.90
2017-06-28T19:17:13.365Z,20.80
2017-06-28T19:19:41.682Z,20.70
2017-06-28T19:22:09.973Z,20.50
2017-06-28T19:24:38.301Z,20.40
2017-06-28T19:27:06.596Z,20.30
2017-06-28T19:29:34.892Z,20.20
2017-06-28T19:32:03.205Z,20.10
2017-06-28T19:34:31.508Z,20.10
2017-06-28T19:36:59.862Z,19.90
2017-06-28T19:39:28.154Z,19.90
2017-06-28T19:41:56.464Z,19.80
2017-06-28T19:44:24.757Z,19.70
2017-06-28T19:46:53.106Z,19.60
2017-06-28T19:49:21.393Z,19.50
2017-06-28T19:51:49.684Z,19.40
2017-06-28T19:54:18.016Z,19.30
2017-06-28T19:56:46.314Z,19.20
2017-06-28T19:59:14.660Z,19.10
2017-06-28T20:01:42.957Z,19.00
2017-06-28T20:04:11.292Z,18.90
2017-06-28T20:06:39.576Z,18.80
2017-06-28T20:09:07.897Z,18.70
2017-06-28T20:11:36.900Z,18.70
2017-06-28T20:14:05.186Z,18.60
2017-06-28T20:16:33.506Z,18.50
2017-06-28T20:19:01.815Z,18.40
2017-06-28T20:21:30.145Z,18.30
2017-06-28T20:23:58.439Z,18.30
2017-06-28T20:26:26.750Z,18.20
2017-06-28T20:28:54.274Z,18.20
2017-06-28T20:31:22.605Z,18.10
2017-06-28T20:33:50.906Z,18.00
2017-06-28T20:36:19.198Z,18.00
2017-06-28T20:38:47.518Z,17.90
2017-06-28T20:41:15.046Z,17.90
2017-06-28T20:43:43.453Z,17.80
2017-06-28T20:46:11.864Z,17.80
2017-06-28T20:48:40.173Z,17.70
2017-06-28T20:51:08.464Z,17.60
2017-06-28T20:53:36.776Z,17.50
2017-06-28T20:56:05.069Z,17.50
2017-06-28T20:58:33.357Z,17.40
2017-06-28T21:01:01.693Z,17.40
2017-06-28T21:03:29.990Z,17.30
2017-06-28T21:05:58.300Z,17.30
2017-06-28T21:08:26.593Z,17.30
2017-06-28T21:10:54.896Z,17.20
2017-06-28T21:13:23.181Z,17.20
2017-06-28T21:15:51.506Z,17.10
2017-06-28T21:18:19.800Z,17.10
2017-06-28T21:20:48.124Z,17.10
2017-06-28T21:23:16.445Z,17.10
2017-06-28T21:25:44.759Z,17.10
2017-06-28T21:28:13.085Z,17.10
2017-06-28T21:30:41.378Z,17.10
2017-06-28T21:33:09.717Z,17.10
2017-06-28T21:35:38.008Z,17.10
2017-06-28T21:38:06.306Z,17.10
2017-06-28T21:40:34.621Z,17.10
2017-06-28T21:43:02.909Z,17.10
2017-06-28T21:45:31.238Z,17.10
2017-06-28T21:47:59.549Z,17.20
2017-06-28T21:50:27.862Z,17.20
2017-06-28T21:52:56.158Z,17.10
2017-06-28T21:55:24.477Z,17.10
2017-06-28T21:57:52.768Z,17.20
2017-06-28T22:00:21.062Z,17.20
2017-06-28T22:02:49.376Z,17.30
2017-06-28T22:05:17.665Z,17.30
2017-06-28T22:07:45.981Z,17.30
2017-06-28T22:10:14.286Z,17.30
2017-06-28T22:12:42.602Z,17.30
2017-06-28T22:15:10.895Z,17.30
2017-06-28T22:17:39.201Z,17.20
2017-06-28T22:20:07.493Z,17.20
2017-06-28T22:22:35.781Z,17.10
2017-06-28T22:25:04.117Z,17.10
2017-06-28T22:27:32.404Z,17.10
2017-06-28T22:30:00.720Z,17.00
2017-06-28T22:32:29.005Z,16.90
2017-06-28T22:34:57.317Z,16.90
2017-06-28T22:37:25.608Z,16.80
2017-06-28T22:39:53.920Z,16.70
2017-06-28T22:42:22.228Z,16.70
2017-06-28T22:44:50.521Z,16.60
2017-06-28T22:47:18.833Z,16.60
2017-06-28T22:49:47.125Z,16.50
2017-06-28T22:52:15.448Z,16.50
2017-06-28T22:54:43.748Z,16.40
2017-06-28T22:57:12.063Z,16.40
2017-06-28T22:59:40.344Z,16.30
2017-06-28T23:02:08.656Z,16.30
2017-06-28T23:04:36.937Z,16.30
2017-06-28T23:07:05.228Z,16.30
2017-06-28T23:09:33.537Z,16.20
2017-06-28T23:12:01.825Z,16.10
2017-06-28T23:14:30.145Z,16.10
2017-06-28T23:16:58.436Z,16.00
2017-06-28T23:19:26.747Z,16.00
2017-06-28T23:21:55.036Z,16.00
2017-06-28T23:24:23.361Z,15.90
2017-06-28T23:26:51.648Z,15.90
2017-06-28T23:29:19.931Z,15.90
2017-06-28T23:31:48.238Z,15.90
2017-06-28T23:34:16.537Z,15.80
2017-06-28T23:36:44.850Z,15.80
2017-06-28T23:39:13.141Z,15.80
2017-06-28T23:41:41.462Z,15.80
2017-06-28T23:44:09.749Z,15.80
2017-06-28T23:46:38.068Z,15.70
2017-06-28T23:49:06.361Z,15.70
2017-06-28T23:51:34.652Z,15.70
2017-06-28T23:54:02.965Z,15.70
2017-06-28T23:56:31.256Z,15.70
2017-06-28T23:58:59.571Z,15.60
